sensor_id;sensor_type;location;lat;lon;timestamp;pressure;altitude;pressure_sealevel;temperature;humidity
70229;BME280;57617;51.988;5.854;2023-07-31T00:01:32;100539.44;;;19.34;69.80
70229;BME280;57617;51.988;5.854;2023-07-31T00:03:57;100533.34;;;19.37;69.51
70229;BME280;57617;51.988;5.854;2023-07-31T00:06:22;100522.03;;;19.39;69.57
70229;BME280;57617;51.988;5.854;2023-07-31T00:08:48;100520.38;;;19.38;69.69
70229;BME280;57617;51.988;5.854;2023-07-31T00:11:13;100511.81;;;19.39;69.68
70229;BME280;57617;51.988;5.854;2023-07-31T00:13:38;100510.19;;;19.38;69.63
70229;BME280;57617;51.988;5.854;2023-07-31T00:16:03;100517.00;;;19.41;69.74
70229;BME280;57617;51.988;5.854;2023-07-31T00:18:29;100502.75;;;19.39;69.56
70229;BME280;57617;51.988;5.854;2023-07-31T00:20:54;100504.06;;;19.41;70.00
70229;BME280;57617;51.988;5.854;2023-07-31T00:23:19;100498.47;;;19.46;69.44
70229;BME280;57617;51.988;5.854;2023-07-31T00:25:45;100503.63;;;19.48;69.80
70229;BME280;57617;51.988;5.854;2023-07-31T00:28:10;100488.44;;;19.50;69.93
70229;BME280;57617;51.988;5.854;2023-07-31T00:30:35;100486.50;;;19.51;69.45
70229;BME280;57617;51.988;5.854;2023-07-31T00:33:00;100485.38;;;19.52;69.70
70229;BME280;57617;51.988;5.854;2023-07-31T00:35:26;100482.72;;;19.47;69.55
70229;BME280;57617;51.988;5.854;2023-07-31T00:37:51;100478.03;;;19.47;69.96
70229;BME280;57617;51.988;5.854;2023-07-31T00:40:16;100488.75;;;19.49;70.26
70229;BME280;57617;51.988;5.854;2023-07-31T00:42:42;100489.56;;;19.49;70.32
70229;BME280;57617;51.988;5.854;2023-07-31T00:45:07;100487.94;;;19.48;70.23
70229;BME280;57617;51.988;5.854;2023-07-31T00:47:33;100482.63;;;19.52;70.32
70229;BME280;57617;51.988;5.854;2023-07-31T00:49:58;100473.97;;;19.45;70.55
70229;BME280;57617;51.988;5.854;2023-07-31T00:52:23;100484.34;;;19.48;70.74
70229;BME280;57617;51.988;5.854;2023-07-31T00:54:49;100469.66;;;19.52;70.75
70229;BME280;57617;51.988;5.854;2023-07-31T00:57:15;100464.16;;;19.52;70.68
70229;BME280;57617;51.988;5.854;2023-07-31T00:59:40;100466.50;;;19.59;70.75
70229;BME280;57617;51.988;5.854;2023-07-31T01:02:06;100473.66;;;19.60;70.94
70229;BME280;57617;51.988;5.854;2023-07-31T01:04:31;100458.34;;;19.54;71.23
70229;BME280;57617;51.988;5.854;2023-07-31T01:10:11;100460.97;;;19.72;72.33
70229;BME280;57617;51.988;5.854;2023-07-31T01:12:41;100471.88;;;19.77;71.64
70229;BME280;57617;51.988;5.854;2023-07-31T01:15:08;100458.00;;;19.82;71.49
70229;BME280;57617;51.988;5.854;2023-07-31T01:17:38;100452.13;;;19.84;71.51
70229;BME280;57617;51.988;5.854;2023-07-31T01:20:08;100458.97;;;19.86;71.74
70229;BME280;57617;51.988;5.854;2023-07-31T01:28:02;100455.78;;;19.93;72.18
70229;BME280;57617;51.988;5.854;2023-07-31T01:30:32;100452.91;;;19.98;72.18
70229;BME280;57617;51.988;5.854;2023-07-31T01:33:02;100450.69;;;20.00;71.83
70229;BME280;57617;51.988;5.854;2023-07-31T01:35:36;100454.06;;;19.97;72.46
70229;BME280;57617;51.988;5.854;2023-07-31T01:38:02;100448.22;;;19.98;71.99
70229;BME280;57617;51.988;5.854;2023-07-31T01:40:28;100454.53;;;19.99;71.88
70229;BME280;57617;51.988;5.854;2023-07-31T01:42:53;100448.84;;;19.95;72.04
70229;BME280;57617;51.988;5.854;2023-07-31T01:45:19;100444.16;;;19.96;72.34
70229;BME280;57617;51.988;5.854;2023-07-31T01:47:44;100438.13;;;19.94;72.23
70229;BME280;57617;51.988;5.854;2023-07-31T01:50:09;100443.84;;;19.97;72.14
70229;BME280;57617;51.988;5.854;2023-07-31T01:52:35;100435.06;;;19.95;72.19
70229;BME280;57617;51.988;5.854;2023-07-31T01:55:00;100437.31;;;19.93;72.79
70229;BME280;57617;51.988;5.854;2023-07-31T01:57:26;100429.34;;;19.92;72.16
70229;BME280;57617;51.988;5.854;2023-07-31T01:59:51;100426.78;;;19.95;72.35
70229;BME280;57617;51.988;5.854;2023-07-31T02:02:18;100420.47;;;19.95;72.23
70229;BME280;57617;51.988;5.854;2023-07-31T02:04:44;100432.59;;;19.94;72.49
70229;BME280;57617;51.988;5.854;2023-07-31T02:07:09;100434.56;;;19.93;72.35
70229;BME280;57617;51.988;5.854;2023-07-31T02:09:34;100435.69;;;19.92;72.39
70229;BME280;57617;51.988;5.854;2023-07-31T02:11:59;100432.94;;;19.92;72.60
70229;BME280;57617;51.988;5.854;2023-07-31T02:14:25;100426.41;;;19.88;72.50
70229;BME280;57617;51.988;5.854;2023-07-31T02:16:50;100425.59;;;19.88;72.47
70229;BME280;57617;51.988;5.854;2023-07-31T02:19:15;100408.44;;;19.91;73.29
70229;BME280;57617;51.988;5.854;2023-07-31T02:21:41;100424.16;;;19.90;72.47
70229;BME280;57617;51.988;5.854;2023-07-31T02:24:06;100418.63;;;19.90;72.72
70229;BME280;57617;51.988;5.854;2023-07-31T02:26:31;100422.72;;;19.93;72.61
70229;BME280;57617;51.988;5.854;2023-07-31T02:28:56;100421.91;;;19.92;72.65
70229;BME280;57617;51.988;5.854;2023-07-31T02:31:22;100417.44;;;19.83;72.82
70229;BME280;57617;51.988;5.854;2023-07-31T02:33:47;100417.44;;;19.83;72.77
70229;BME280;57617;51.988;5.854;2023-07-31T02:36:12;100405.63;;;19.82;72.90
70229;BME280;57617;51.988;5.854;2023-07-31T02:38:38;100409.47;;;19.81;72.90
70229;BME280;57617;51.988;5.854;2023-07-31T02:41:03;100394.47;;;19.74;72.90
70229;BME280;57617;51.988;5.854;2023-07-31T02:43:28;100402.50;;;19.84;73.03
70229;BME280;57617;51.988;5.854;2023-07-31T02:45:54;100401.59;;;19.88;72.94
70229;BME280;57617;51.988;5.854;2023-07-31T02:48:19;100402.63;;;19.92;72.88
70229;BME280;57617;51.988;5.854;2023-07-31T02:50:45;100405.88;;;19.94;72.70
70229;BME280;57617;51.988;5.854;2023-07-31T02:53:10;100404.44;;;19.97;72.65
70229;BME280;57617;51.988;5.854;2023-07-31T02:55:36;100406.34;;;19.96;72.51
70229;BME280;57617;51.988;5.854;2023-07-31T02:58:01;100400.66;;;19.93;72.54
70229;BME280;57617;51.988;5.854;2023-07-31T03:00:27;100404.53;;;19.92;72.70
70229;BME280;57617;51.988;5.854;2023-07-31T03:02:53;100411.38;;;19.94;72.82
70229;BME280;57617;51.988;5.854;2023-07-31T03:05:18;100407.78;;;19.94;72.65
70229;BME280;57617;51.988;5.854;2023-07-31T03:07:43;100401.78;;;19.92;72.52
70229;BME280;57617;51.988;5.854;2023-07-31T03:10:09;100400.97;;;19.91;72.31
70229;BME280;57617;51.988;5.854;2023-07-31T03:12:34;100402.28;;;19.94;72.60
70229;BME280;57617;51.988;5.854;2023-07-31T03:14:59;100396.28;;;19.92;72.41
70229;BME280;57617;51.988;5.854;2023-07-31T03:17:25;100395.97;;;19.93;72.29
70229;BME280;57617;51.988;5.854;2023-07-31T03:19:50;100399.53;;;19.94;72.22
70229;BME280;57617;51.988;5.854;2023-07-31T03:22:15;100407.78;;;19.94;72.32
70229;BME280;57617;51.988;5.854;2023-07-31T03:24:40;100397.41;;;19.91;72.43
70229;BME280;57617;51.988;5.854;2023-07-31T03:27:06;100403.72;;;19.91;72.26
70229;BME280;57617;51.988;5.854;2023-07-31T03:29:31;100400.47;;;19.89;72.38
70229;BME280;57617;51.988;5.854;2023-07-31T03:31:56;100399.34;;;19.90;72.84
70229;BME280;57617;51.988;5.854;2023-07-31T03:34:22;100389.63;;;19.93;72.22
70229;BME280;57617;51.988;5.854;2023-07-31T03:36:47;100386.06;;;19.92;72.30
70229;BME280;57617;51.988;5.854;2023-07-31T03:39:12;100396.28;;;19.92;72.12
70229;BME280;57617;51.988;5.854;2023-07-31T03:41:38;100389.25;;;19.86;72.14
70229;BME280;57617;51.988;5.854;2023-07-31T03:44:03;100396.69;;;19.85;72.11
70229;BME280;57617;51.988;5.854;2023-07-31T03:46:28;100394.59;;;19.82;72.06
70229;BME280;57617;51.988;5.854;2023-07-31T03:48:54;100389.19;;;19.77;72.33
70229;BME280;57617;51.988;5.854;2023-07-31T03:51:19;100391.63;;;19.79;72.31
70229;BME280;57617;51.988;5.854;2023-07-31T03:53:45;100377.03;;;19.78;72.16
70229;BME280;57617;51.988;5.854;2023-07-31T03:56:10;100387.94;;;19.83;72.04
70229;BME280;57617;51.988;5.854;2023-07-31T03:58:36;100393.34;;;19.88;71.80
70229;BME280;57617;51.988;5.854;2023-07-31T04:01:02;100388.63;;;19.89;71.91
70229;BME280;57617;51.988;5.854;2023-07-31T04:03:27;100383.09;;;19.89;71.75
70229;BME280;57617;51.988;5.854;2023-07-31T04:05:54;100379.47;;;19.80;71.49
70229;BME280;57617;51.988;5.854;2023-07-31T04:08:21;100390.50;;;19.80;71.66
70229;BME280;57617;51.988;5.854;2023-07-31T04:10:46;100385.31;;;19.78;71.72
70229;BME280;57617;51.988;5.854;2023-07-31T04:13:12;100354.22;;;19.64;71.67
70229;BME280;57617;51.988;5.854;2023-07-31T04:15:37;100381.72;;;19.78;71.48
70229;BME280;57617;51.988;5.854;2023-07-31T04:18:03;100375.59;;;19.81;71.56
70229;BME280;57617;51.988;5.854;2023-07-31T04:20:28;100377.81;;;19.79;71.57
70229;BME280;57617;51.988;5.854;2023-07-31T04:22:53;100375.41;;;19.77;71.60
70229;BME280;57617;51.988;5.854;2023-07-31T04:25:19;100372.66;;;19.77;71.32
70229;BME280;57617;51.988;5.854;2023-07-31T04:27:44;100369.38;;;19.75;71.46
70229;BME280;57617;51.988;5.854;2023-07-31T04:30:09;100366.13;;;19.73;71.27
70229;BME280;57617;51.988;5.854;2023-07-31T04:32:34;100368.88;;;19.73;71.61
70229;BME280;57617;51.988;5.854;2023-07-31T04:35:01;100370.50;;;19.74;71.28
70229;BME280;57617;51.988;5.854;2023-07-31T04:37:26;100360.31;;;19.75;71.21
70229;BME280;57617;51.988;5.854;2023-07-31T04:39:51;100362.41;;;19.78;71.01
70229;BME280;57617;51.988;5.854;2023-07-31T04:42:16;100355.78;;;19.79;71.22
70229;BME280;57617;51.988;5.854;2023-07-31T04:44:42;100356.31;;;19.81;71.17
70229;BME280;57617;51.988;5.854;2023-07-31T04:47:07;100352.41;;;19.82;70.94
70229;BME280;57617;51.988;5.854;2023-07-31T04:49:32;100351.78;;;19.85;70.96
70229;BME280;57617;51.988;5.854;2023-07-31T04:51:58;100352.09;;;19.83;71.03
70229;BME280;57617;51.988;5.854;2023-07-31T04:54:23;100352.72;;;19.80;70.68
70229;BME280;57617;51.988;5.854;2023-07-31T04:56:49;100340.00;;;19.71;70.89
70229;BME280;57617;51.988;5.854;2023-07-31T04:59:14;100344.75;;;19.79;70.82
70229;BME280;57617;51.988;5.854;2023-07-31T05:01:39;100350.25;;;19.79;70.59
70229;BME280;57617;51.988;5.854;2023-07-31T05:04:04;100350.25;;;19.79;70.66
70229;BME280;57617;51.988;5.854;2023-07-31T05:06:30;100342.22;;;19.82;70.61
70229;BME280;57617;51.988;5.854;2023-07-31T05:08:55;100340.19;;;19.74;70.70
70229;BME280;57617;51.988;5.854;2023-07-31T05:11:20;100344.25;;;19.77;70.68
70229;BME280;57617;51.988;5.854;2023-07-31T05:13:46;100346.19;;;19.76;70.75
70229;BME280;57617;51.988;5.854;2023-07-31T05:16:11;100343.13;;;19.78;70.64
70229;BME280;57617;51.988;5.854;2023-07-31T05:18:36;100337.75;;;19.73;70.58
70229;BME280;57617;51.988;5.854;2023-07-31T05:21:02;100328.47;;;19.69;70.66
70229;BME280;57617;51.988;5.854;2023-07-31T05:23:27;100322.03;;;19.73;70.64
70229;BME280;57617;51.988;5.854;2023-07-31T05:25:53;100323.97;;;19.73;70.94
70229;BME280;57617;51.988;5.854;2023-07-31T05:28:18;100327.84;;;19.72;70.52
70229;BME280;57617;51.988;5.854;2023-07-31T05:30:43;100325.22;;;19.67;70.74
70229;BME280;57617;51.988;5.854;2023-07-31T05:33:09;100326.97;;;19.63;70.98
70229;BME280;57617;51.988;5.854;2023-07-31T05:35:34;100327.28;;;19.61;70.97
70229;BME280;57617;51.988;5.854;2023-07-31T05:37:59;100322.28;;;19.63;71.20
70229;BME280;57617;51.988;5.854;2023-07-31T05:40:24;100327.06;;;19.58;71.17
70229;BME280;57617;51.988;5.854;2023-07-31T05:42:50;100319.94;;;19.57;71.47
70229;BME280;57617;51.988;5.854;2023-07-31T05:45:15;100325.44;;;19.57;71.47
70229;BME280;57617;51.988;5.854;2023-07-31T05:47:41;100323.00;;;19.55;71.51
70229;BME280;57617;51.988;5.854;2023-07-31T05:50:07;100323.00;;;19.55;71.54
70229;BME280;57617;51.988;5.854;2023-07-31T05:52:32;100320.06;;;19.52;71.54
70229;BME280;57617;51.988;5.854;2023-07-31T05:54:58;100322.50;;;19.53;71.71
70229;BME280;57617;51.988;5.854;2023-07-31T05:57:23;100321.69;;;19.53;71.96
70229;BME280;57617;51.988;5.854;2023-07-31T05:59:48;100312.94;;;19.51;71.90
70229;BME280;57617;51.988;5.854;2023-07-31T06:02:14;100308.84;;;19.48;72.05
70229;BME280;57617;51.988;5.854;2023-07-31T06:04:39;100306.94;;;19.49;72.18
70229;BME280;57617;51.988;5.854;2023-07-31T06:07:04;100298.97;;;19.47;72.08
70229;BME280;57617;51.988;5.854;2023-07-31T06:09:30;100300.28;;;19.50;72.50
70229;BME280;57617;51.988;5.854;2023-07-31T06:11:56;100294.47;;;19.51;72.54
70229;BME280;57617;51.988;5.854;2023-07-31T06:14:21;100286.50;;;19.50;72.60
70229;BME280;57617;51.988;5.854;2023-07-31T06:16:47;100280.69;;;19.51;72.63
70229;BME280;57617;51.988;5.854;2023-07-31T06:19:12;100283.44;;;19.51;72.57
70229;BME280;57617;51.988;5.854;2023-07-31T06:21:38;100279.38;;;19.49;72.67
70229;BME280;57617;51.988;5.854;2023-07-31T06:24:05;100287.53;;;19.54;73.12
70229;BME280;57617;51.988;5.854;2023-07-31T06:26:30;100283.81;;;19.58;72.90
70229;BME280;57617;51.988;5.854;2023-07-31T06:28:56;100275.56;;;19.58;72.99
70229;BME280;57617;51.988;5.854;2023-07-31T06:31:21;100271.66;;;19.59;73.00
70229;BME280;57617;51.988;5.854;2023-07-31T06:33:49;100267.72;;;19.52;73.14
70229;BME280;57617;51.988;5.854;2023-07-31T06:36:14;100260.28;;;19.52;72.90
70229;BME280;57617;51.988;5.854;2023-07-31T06:38:40;100263.03;;;19.52;73.50
70229;BME280;57617;51.988;5.854;2023-07-31T06:41:05;100258.00;;;19.54;73.70
70229;BME280;57617;51.988;5.854;2023-07-31T06:43:30;100254.75;;;19.52;73.56
70229;BME280;57617;51.988;5.854;2023-07-31T06:45:56;100255.25;;;19.54;73.92
70229;BME280;57617;51.988;5.854;2023-07-31T06:48:21;100248.31;;;19.57;73.81
70229;BME280;57617;51.988;5.854;2023-07-31T06:50:47;100249.31;;;19.61;74.03
70229;BME280;57617;51.988;5.854;2023-07-31T06:53:12;100249.50;;;19.64;73.88
70229;BME280;57617;51.988;5.854;2023-07-31T06:55:37;100243.03;;;19.69;74.07
70229;BME280;57617;51.988;5.854;2023-07-31T06:58:03;100237.84;;;19.67;73.95
70229;BME280;57617;51.988;5.854;2023-07-31T07:00:28;100245.47;;;19.70;74.22
70229;BME280;57617;51.988;5.854;2023-07-31T07:02:54;100240.16;;;19.74;74.05
70229;BME280;57617;51.988;5.854;2023-07-31T07:05:19;100244.56;;;19.75;73.89
70229;BME280;57617;51.988;5.854;2023-07-31T07:07:44;100241.44;;;19.76;73.97
70229;BME280;57617;51.988;5.854;2023-07-31T07:10:10;100244.69;;;19.70;74.34
70229;BME280;57617;51.988;5.854;2023-07-31T07:12:35;100216.38;;;19.56;74.46
70229;BME280;57617;51.988;5.854;2023-07-31T07:15:02;100238.03;;;19.71;74.44
70229;BME280;57617;51.988;5.854;2023-07-31T07:17:28;100231.56;;;19.75;74.31
70229;BME280;57617;51.988;5.854;2023-07-31T07:19:56;100230.63;;;19.80;74.84
70229;BME280;57617;51.988;5.854;2023-07-31T07:22:21;100231.25;;;19.77;74.55
70229;BME280;57617;51.988;5.854;2023-07-31T07:24:47;100233.06;;;19.81;74.56
70229;BME280;57617;51.988;5.854;2023-07-31T07:27:12;100218.97;;;19.83;74.66
70229;BME280;57617;51.988;5.854;2023-07-31T07:29:38;100225.78;;;19.85;74.70
70229;BME280;57617;51.988;5.854;2023-07-31T07:32:03;100225.00;;;19.85;74.81
70229;BME280;57617;51.988;5.854;2023-07-31T07:34:29;100220.13;;;19.90;74.88
70229;BME280;57617;51.988;5.854;2023-07-31T07:36:54;100239.56;;;19.85;74.82
70229;BME280;57617;51.988;5.854;2023-07-31T07:39:20;100209.56;;;19.84;75.14
70229;BME280;57617;51.988;5.854;2023-07-31T07:41:45;100221.28;;;19.89;74.80
70229;BME280;57617;51.988;5.854;2023-07-31T07:44:11;100219.53;;;19.93;74.97
70229;BME280;57617;51.988;5.854;2023-07-31T07:46:37;100220.31;;;19.94;75.02
70229;BME280;57617;51.988;5.854;2023-07-31T07:49:02;100222.75;;;19.95;74.96
70229;BME280;57617;51.988;5.854;2023-07-31T07:51:27;100222.59;;;19.92;75.22
70229;BME280;57617;51.988;5.854;2023-07-31T07:53:55;100213.50;;;19.91;74.98
70229;BME280;57617;51.988;5.854;2023-07-31T07:56:21;100221.63;;;19.96;74.83
70229;BME280;57617;51.988;5.854;2023-07-31T07:58:48;100215.31;;;19.96;75.00
70229;BME280;57617;51.988;5.854;2023-07-31T08:01:14;100216.44;;;19.95;75.15
70229;BME280;57617;51.988;5.854;2023-07-31T08:03:39;100205.59;;;19.98;75.16
70229;BME280;57617;51.988;5.854;2023-07-31T08:06:05;100212.44;;;20.01;75.10
70229;BME280;57617;51.988;5.854;2023-07-31T08:08:30;100201.09;;;20.02;75.18
70229;BME280;57617;51.988;5.854;2023-07-31T08:10:55;100208.22;;;20.03;75.37
70229;BME280;57617;51.988;5.854;2023-07-31T08:13:21;100202.41;;;20.05;75.31
70229;BME280;57617;51.988;5.854;2023-07-31T08:15:46;100200.63;;;20.09;75.25
70229;BME280;57617;51.988;5.854;2023-07-31T08:18:11;100200.63;;;20.09;75.26
70229;BME280;57617;51.988;5.854;2023-07-31T08:20:37;100209.91;;;20.13;75.06
70229;BME280;57617;51.988;5.854;2023-07-31T08:23:03;100204.53;;;20.08;75.54
70229;BME280;57617;51.988;5.854;2023-07-31T08:25:28;100197.97;;;20.04;75.19
70229;BME280;57617;51.988;5.854;2023-07-31T08:27:54;100190.22;;;20.06;75.44
70229;BME280;57617;51.988;5.854;2023-07-31T08:30:19;100197.88;;;20.09;75.38
70229;BME280;57617;51.988;5.854;2023-07-31T08:32:44;100200.50;;;20.14;75.34
70229;BME280;57617;51.988;5.854;2023-07-31T08:35:10;100190.44;;;20.09;75.55
70229;BME280;57617;51.988;5.854;2023-07-31T08:37:37;100199.19;;;20.11;75.71
70229;BME280;57617;51.988;5.854;2023-07-31T08:40:04;100200.50;;;20.14;75.75
70229;BME280;57617;51.988;5.854;2023-07-31T08:42:29;100188.31;;;20.15;75.74
70229;BME280;57617;51.988;5.854;2023-07-31T08:44:56;100188.97;;;20.12;75.72
70229;BME280;57617;51.988;5.854;2023-07-31T08:47:22;100189.97;;;20.16;75.85
70229;BME280;57617;51.988;5.854;2023-07-31T08:49:49;100195.50;;;20.16;75.81
70229;BME280;57617;51.988;5.854;2023-07-31T08:52:14;100200.19;;;20.15;75.82
70229;BME280;57617;51.988;5.854;2023-07-31T08:54:40;100193.22;;;20.18;75.91
70229;BME280;57617;51.988;5.854;2023-07-31T08:57:06;100189.84;;;20.21;75.97
70229;BME280;57617;51.988;5.854;2023-07-31T08:59:34;100195.00;;;20.22;76.04
70229;BME280;57617;51.988;5.854;2023-07-31T09:02:05;100188.19;;;20.20;76.02
70229;BME280;57617;51.988;5.854;2023-07-31T09:04:31;100196.97;;;20.22;76.04
70229;BME280;57617;51.988;5.854;2023-07-31T09:07:00;100190.94;;;20.20;76.26
70229;BME280;57617;51.988;5.854;2023-07-31T09:09:25;100192.91;;;20.19;76.26
70229;BME280;57617;51.988;5.854;2023-07-31T09:11:51;100188.69;;;20.22;75.99
70229;BME280;57617;51.988;5.854;2023-07-31T09:14:18;100195.00;;;20.22;76.04
70229;BME280;57617;51.988;5.854;2023-07-31T09:16:57;100191.94;;;20.24;76.46
70229;BME280;57617;51.988;5.854;2023-07-31T09:19:32;100181.41;;;20.26;76.25
70229;BME280;57617;51.988;5.854;2023-07-31T09:21:59;100176.69;;;20.26;75.92
70229;BME280;57617;51.988;5.854;2023-07-31T09:24:26;100180.72;;;20.20;76.15
70229;BME280;57617;51.988;5.854;2023-07-31T09:26:54;100179.28;;;20.23;76.39
70229;BME280;57617;51.988;5.854;2023-07-31T09:29:20;100185.78;;;20.27;76.31
70229;BME280;57617;51.988;5.854;2023-07-31T09:31:45;100189.69;;;20.26;76.24
70229;BME280;57617;51.988;5.854;2023-07-31T09:34:11;100176.22;;;20.24;76.49
70229;BME280;57617;51.988;5.854;2023-07-31T09:36:44;100182.88;;;20.32;76.69
70229;BME280;57617;51.988;5.854;2023-07-31T09:39:11;100163.25;;;20.33;76.37
70229;BME280;57617;51.988;5.854;2023-07-31T09:41:41;100161.31;;;20.34;76.24
70229;BME280;57617;51.988;5.854;2023-07-31T09:44:07;100163.91;;;20.39;76.15
70229;BME280;57617;51.988;5.854;2023-07-31T09:46:35;100174.31;;;20.42;76.22
70229;BME280;57617;51.988;5.854;2023-07-31T09:49:11;100167.81;;;20.46;76.17
70229;BME280;57617;51.988;5.854;2023-07-31T09:51:41;100162.81;;;20.48;76.11
70229;BME280;57617;51.988;5.854;2023-07-31T09:54:14;100156.78;;;20.46;76.11
70229;BME280;57617;51.988;5.854;2023-07-31T09:56:47;100160.38;;;20.47;75.94
70229;BME280;57617;51.988;5.854;2023-07-31T09:59:15;100156.94;;;20.41;76.09
70229;BME280;57617;51.988;5.854;2023-07-31T10:01:42;100153.69;;;20.39;76.30
70229;BME280;57617;51.988;5.854;2023-07-31T10:04:09;100166.84;;;20.42;76.24
70229;BME280;57617;51.988;5.854;2023-07-31T10:06:35;100159.88;;;20.45;76.21
70229;BME280;57617;51.988;5.854;2023-07-31T10:09:03;100151.25;;;20.46;76.19
70229;BME280;57617;51.988;5.854;2023-07-31T10:11:30;100162.47;;;20.50;76.16
70229;BME280;57617;51.988;5.854;2023-07-31T10:13:59;100151.94;;;20.43;76.11
70229;BME280;57617;51.988;5.854;2023-07-31T10:16:24;100159.72;;;20.50;76.18
70229;BME280;57617;51.988;5.854;2023-07-31T10:18:51;100152.09;;;20.47;76.17
70229;BME280;57617;51.988;5.854;2023-07-31T10:21:17;100155.66;;;20.56;76.11
70229;BME280;57617;51.988;5.854;2023-07-31T10:23:44;100153.06;;;20.51;76.21
70229;BME280;57617;51.988;5.854;2023-07-31T10:26:10;100150.47;;;20.54;75.96
70229;BME280;57617;51.988;5.854;2023-07-31T10:28:37;100153.72;;;20.56;76.05
70229;BME280;57617;51.988;5.854;2023-07-31T10:31:03;100166.06;;;20.59;76.14
70229;BME280;57617;51.988;5.854;2023-07-31T10:33:30;100161.69;;;20.58;75.88
70229;BME280;57617;51.988;5.854;2023-07-31T10:36:20;100161.22;;;20.64;76.33
70229;BME280;57617;51.988;5.854;2023-07-31T10:38:48;100160.88;;;20.66;76.05
70229;BME280;57617;51.988;5.854;2023-07-31T10:41:14;100166.91;;;20.68;75.97
70229;BME280;57617;51.988;5.854;2023-07-31T10:43:40;100158.31;;;20.69;75.70
70229;BME280;57617;51.988;5.854;2023-07-31T10:46:12;100158.78;;;20.71;76.04
70229;BME280;57617;51.988;5.854;2023-07-31T10:48:39;100163.66;;;20.74;75.96
70229;BME280;57617;51.988;5.854;2023-07-31T10:51:10;100158.31;;;20.78;76.08
70229;BME280;57617;51.988;5.854;2023-07-31T10:53:37;100158.16;;;20.83;75.84
70229;BME280;57617;51.988;5.854;2023-07-31T10:56:05;100153.41;;;20.83;75.89
70229;BME280;57617;51.988;5.854;2023-07-31T10:58:31;100150.03;;;20.86;75.86
70229;BME280;57617;51.988;5.854;2023-07-31T11:00:59;100148.28;;;20.90;76.00
70229;BME280;57617;51.988;5.854;2023-07-31T11:06:12;100149.69;;;20.88;75.75
70229;BME280;57617;51.988;5.854;2023-07-31T11:08:42;100145.50;;;20.90;75.95
70229;BME280;57617;51.988;5.854;2023-07-31T11:11:10;100143.22;;;20.92;75.87
70229;BME280;57617;51.988;5.854;2023-07-31T11:14:01;100146.47;;;20.94;75.83
70229;BME280;57617;51.988;5.854;2023-07-31T11:16:26;100140.63;;;20.96;75.70
70229;BME280;57617;51.988;5.854;2023-07-31T11:18:53;100145.66;;;20.94;75.68
70229;BME280;57617;51.988;5.854;2023-07-31T11:21:21;100152.19;;;20.98;75.90
70229;BME280;57617;51.988;5.854;2023-07-31T11:23:47;100151.03;;;20.99;75.77
70229;BME280;57617;51.988;5.854;2023-07-31T11:26:14;100133.97;;;20.97;75.93
70229;BME280;57617;51.988;5.854;2023-07-31T11:28:39;100140.97;;;21.03;75.73
70229;BME280;57617;51.988;5.854;2023-07-31T11:31:09;100146.97;;;21.05;75.63
70229;BME280;57617;51.988;5.854;2023-07-31T11:33:34;100150.88;;;21.04;75.70
70229;BME280;57617;51.988;5.854;2023-07-31T11:35:59;100137.38;;;21.02;75.74
70229;BME280;57617;51.988;5.854;2023-07-31T11:38:32;100142.59;;;21.04;76.14
70229;BME280;57617;51.988;5.854;2023-07-31T11:41:03;100140.47;;;21.01;76.02
70229;BME280;57617;51.988;5.854;2023-07-31T11:43:29;100132.00;;;21.06;75.87
70229;BME280;57617;51.988;5.854;2023-07-31T11:45:56;100139.16;;;21.07;75.92
70229;BME280;57617;51.988;5.854;2023-07-31T11:50:52;100140.81;;;21.08;75.87
70229;BME280;57617;51.988;5.854;2023-07-31T11:55:58;100131.38;;;21.00;75.69
70229;BME280;57617;51.988;5.854;2023-07-31T11:58:24;100135.28;;;21.08;75.94
70229;BME280;57617;51.988;5.854;2023-07-31T12:00:50;100140.13;;;21.11;75.72
70229;BME280;57617;51.988;5.854;2023-07-31T12:03:17;100132.81;;;21.15;75.87
70229;BME280;57617;51.988;5.854;2023-07-31T12:05:43;100136.06;;;21.17;75.88
70229;BME280;57617;51.988;5.854;2023-07-31T12:08:10;100133.28;;;21.17;75.82
70229;BME280;57617;51.988;5.854;2023-07-31T12:10:37;100133.78;;;21.19;75.92
70229;BME280;57617;51.988;5.854;2023-07-31T12:13:05;100126.47;;;21.23;75.43
70229;BME280;57617;51.988;5.854;2023-07-31T12:15:36;100136.53;;;21.27;75.66
70229;BME280;57617;51.988;5.854;2023-07-31T12:18:13;100127.94;;;21.20;75.48
70229;BME280;57617;51.988;5.854;2023-07-31T12:20:43;100136.88;;;21.26;75.57
70229;BME280;57617;51.988;5.854;2023-07-31T12:23:22;100140.59;;;21.30;75.45
70229;BME280;57617;51.988;5.854;2023-07-31T12:26:13;100135.25;;;21.25;75.36
70229;BME280;57617;51.988;5.854;2023-07-31T12:28:44;100132.63;;;21.28;75.49
70229;BME280;57617;51.988;5.854;2023-07-31T12:31:12;100133.94;;;21.31;75.33
70229;BME280;57617;51.988;5.854;2023-07-31T12:33:39;100135.06;;;21.30;75.52
70229;BME280;57617;51.988;5.854;2023-07-31T12:36:08;100126.16;;;21.33;75.45
70229;BME280;57617;51.988;5.854;2023-07-31T12:38:34;100125.78;;;21.34;75.39
70229;BME280;57617;51.988;5.854;2023-07-31T12:40:59;100121.41;;;21.33;75.32
70229;BME280;57617;51.988;5.854;2023-07-31T12:43:25;100115.41;;;21.31;75.37
70229;BME280;57617;51.988;5.854;2023-07-31T12:45:50;100115.44;;;21.23;75.49
70229;BME280;57617;51.988;5.854;2023-07-31T12:48:16;100117.84;;;21.24;75.54
70229;BME280;57617;51.988;5.854;2023-07-31T12:50:41;100106.66;;;21.21;75.64
70229;BME280;57617;51.988;5.854;2023-07-31T12:53:07;100116.72;;;21.17;75.49
70229;BME280;57617;51.988;5.854;2023-07-31T12:55:33;100124.22;;;21.16;75.73
70229;BME280;57617;51.988;5.854;2023-07-31T12:58:02;100118.19;;;21.14;75.67
70229;BME280;57617;51.988;5.854;2023-07-31T13:00:27;100112.50;;;21.11;75.74
70229;BME280;57617;51.988;5.854;2023-07-31T13:02:52;100120.78;;;21.11;76.03